sensor_id;sensor_type;location;lat;lon;timestamp;temperature;humidity
18888;DHT22;9576;47.792;9.628;2024-02-15T00:01:38;8.20;99.90
18888;DHT22;9576;47.792;9.628;2024-02-15T00:04:40;8.10;99.90
18888;DHT22;9576;47.792;9.628;2024-02-15T00:07:42;8.00;99.90
18888;DHT22;9576;47.792;9.628;2024-02-15T00:10:50;7.90;99.90
18888;DHT22;9576;47.792;9.628;2024-02-15T00:13:51;7.90;99.90
18888;DHT22;9576;47.792;9.628;2024-02-15T00:16:53;7.70;99.90
18888;DHT22;9576;47.792;9.628;2024-02-15T00:19:55;7.60;99.90
18888;DHT22;9576;47.792;9.628;2024-02-15T00:22:57;7.60;99.90
18888;DHT22;9576;47.792;9.628;2024-02-15T00:26:00;7.50;99.90
18888;DHT22;9576;47.792;9.628;2024-02-15T00:29:01;7.40;99.90
18888;DHT22;9576;47.792;9.628;2024-02-15T00:32:03;7.40;99.90
18888;DHT22;9576;47.792;9.628;2024-02-15T00:35:06;7.40;99.90
18888;DHT22;9576;47.792;9.628;2024-02-15T00:38:09;7.30;99.90
18888;DHT22;9576;47.792;9.628;2024-02-15T00:41:12;7.30;99.90
18888;DHT22;9576;47.792;9.628;2024-02-15T00:44:14;7.20;99.90
18888;DHT22;9576;47.792;9.628;2024-02-15T00:47:16;7.20;99.90
18888;DHT22;9576;47.792;9.628;2024-02-15T00:50:19;7.20;99.90
18888;DHT22;9576;47.792;9.628;2024-02-15T00:53:20;7.10;99.90
18888;DHT22;9576;47.792;9.628;2024-02-15T00:56:23;7.10;99.90
18888;DHT22;9576;47.792;9.628;2024-02-15T00:59:25;7.00;99.90
18888;DHT22;9576;47.792;9.628;2024-02-15T01:02:27;7.00;99.90
18888;DHT22;9576;47.792;9.628;2024-02-15T01:05:29;7.00;99.90
18888;DHT22;9576;47.792;9.628;2024-02-15T01:08:31;6.90;99.90
18888;DHT22;9576;47.792;9.628;2024-02-15T01:11:34;6.90;99.90
18888;DHT22;9576;47.792;9.628;2024-02-15T01:14:37;6.80;99.90
18888;DHT22;9576;47.792;9.628;2024-02-15T01:17:38;6.80;99.90
18888;DHT22;9576;47.792;9.628;2024-02-15T01:20:40;6.80;99.90
18888;DHT22;9576;47.792;9.628;2024-02-15T01:23:42;6.80;99.90
18888;DHT22;9576;47.792;9.628;2024-02-15T01:26:45;6.80;99.90
18888;DHT22;9576;47.792;9.628;2024-02-15T01:29:48;6.70;99.90
18888;DHT22;9576;47.792;9.628;2024-02-15T01:32:50;6.70;99.90
18888;DHT22;9576;47.792;9.628;2024-02-15T01:35:51;6.60;99.90
18888;DHT22;9576;47.792;9.628;2024-02-15T01:38:53;6.50;99.90
18888;DHT22;9576;47.792;9.628;2024-02-15T01:41:56;6.40;99.90
18888;DHT22;9576;47.792;9.628;2024-02-15T01:44:59;6.50;99.90
18888;DHT22;9576;47.792;9.628;2024-02-15T01:48:01;6.40;99.90
18888;DHT22;9576;47.792;9.628;2024-02-15T01:51:04;6.40;99.90
18888;DHT22;9576;47.792;9.628;2024-02-15T01:54:06;6.40;99.90
18888;DHT22;9576;47.792;9.628;2024-02-15T01:57:09;6.40;99.90
18888;DHT22;9576;47.792;9.628;2024-02-15T02:00:11;6.40;99.90
18888;DHT22;9576;47.792;9.628;2024-02-15T02:03:13;6.30;99.90
18888;DHT22;9576;47.792;9.628;2024-02-15T02:06:15;6.30;99.90
18888;DHT22;9576;47.792;9.628;2024-02-15T02:09:17;6.30;99.90
18888;DHT22;9576;47.792;9.628;2024-02-15T02:12:20;6.30;99.90
18888;DHT22;9576;47.792;9.628;2024-02-15T02:15:23;6.30;99.90
18888;DHT22;9576;47.792;9.628;2024-02-15T02:18:24;6.30;99.90
18888;DHT22;9576;47.792;9.628;2024-02-15T02:21:27;6.30;99.90
18888;DHT22;9576;47.792;9.628;2024-02-15T02:24:28;6.20;99.90
18888;DHT22;9576;47.792;9.628;2024-02-15T02:27:33;6.00;99.90
18888;DHT22;9576;47.792;9.628;2024-02-15T02:30:35;5.90;99.90
18888;DHT22;9576;47.792;9.628;2024-02-15T02:33:36;5.90;99.90
18888;DHT22;9576;47.792;9.628;2024-02-15T02:36:38;5.80;99.90
18888;DHT22;9576;47.792;9.628;2024-02-15T02:39:41;5.80;99.90
18888;DHT22;9576;47.792;9.628;2024-02-15T02:42:47;5.70;99.90
18888;DHT22;9576;47.792;9.628;2024-02-15T02:45:49;5.70;99.90
18888;DHT22;9576;47.792;9.628;2024-02-15T02:48:51;5.60;99.90
18888;DHT22;9576;47.792;9.628;2024-02-15T02:51:53;5.60;99.90
18888;DHT22;9576;47.792;9.628;2024-02-15T02:54:54;5.50;99.90
18888;DHT22;9576;47.792;9.628;2024-02-15T02:57:57;5.50;99.90
18888;DHT22;9576;47.792;9.628;2024-02-15T03:00:59;5.40;99.90
18888;DHT22;9576;47.792;9.628;2024-02-15T03:04:01;5.40;99.90
18888;DHT22;9576;47.792;9.628;2024-02-15T03:07:03;5.20;99.90
18888;DHT22;9576;47.792;9.628;2024-02-15T03:10:05;5.10;99.90
18888;DHT22;9576;47.792;9.628;2024-02-15T03:13:10;4.90;99.90
18888;DHT22;9576;47.792;9.628;2024-02-15T03:16:12;4.90;99.90
18888;DHT22;9576;47.792;9.628;2024-02-15T03:19:14;4.80;99.90
18888;DHT22;9576;47.792;9.628;2024-02-15T03:22:15;4.80;99.90
18888;DHT22;9576;47.792;9.628;2024-02-15T03:25:17;4.80;99.90
18888;DHT22;9576;47.792;9.628;2024-02-15T03:28:20;4.80;99.90
18888;DHT22;9576;47.792;9.628;2024-02-15T03:31:23;4.80;99.90
18888;DHT22;9576;47.792;9.628;2024-02-15T03:34:25;4.70;99.90
18888;DHT22;9576;47.792;9.628;2024-02-15T03:37:27;4.70;99.90
18888;DHT22;9576;47.792;9.628;2024-02-15T03:40:29;4.70;99.90
18888;DHT22;9576;47.792;9.628;2024-02-15T03:43:34;4.60;99.90
18888;DHT22;9576;47.792;9.628;2024-02-15T03:46:35;4.60;99.90
18888;DHT22;9576;47.792;9.628;2024-02-15T03:49:37;4.60;99.90
18888;DHT22;9576;47.792;9.628;2024-02-15T03:52:40;4.60;99.90
18888;DHT22;9576;47.792;9.628;2024-02-15T03:55:42;4.50;99.90
18888;DHT22;9576;47.792;9.628;2024-02-15T03:58:45;4.60;99.90
18888;DHT22;9576;47.792;9.628;2024-02-15T04:01:46;4.50;99.90
18888;DHT22;9576;47.792;9.628;2024-02-15T04:04:48;4.50;99.90
18888;DHT22;9576;47.792;9.628;2024-02-15T04:07:53;4.50;99.90
18888;DHT22;9576;47.792;9.628;2024-02-15T04:10:54;4.40;99.90
18888;DHT22;9576;47.792;9.628;2024-02-15T04:13:59;4.40;99.90
18888;DHT22;9576;47.792;9.628;2024-02-15T04:17:01;4.40;99.90
18888;DHT22;9576;47.792;9.628;2024-02-15T04:20:03;4.30;99.90
18888;DHT22;9576;47.792;9.628;2024-02-15T04:23:06;4.30;99.90
18888;DHT22;9576;47.792;9.628;2024-02-15T04:26:09;4.30;99.90
18888;DHT22;9576;47.792;9.628;2024-02-15T04:29:13;4.30;99.90
18888;DHT22;9576;47.792;9.628;2024-02-15T04:32:15;4.30;99.90
18888;DHT22;9576;47.792;9.628;2024-02-15T04:35:16;4.30;99.90
18888;DHT22;9576;47.792;9.628;2024-02-15T04:38:18;4.20;99.90
18888;DHT22;9576;47.792;9.628;2024-02-15T04:41:20;4.20;99.90
18888;DHT22;9576;47.792;9.628;2024-02-15T04:44:25;4.20;99.90
18888;DHT22;9576;47.792;9.628;2024-02-15T04:47:27;4.10;99.90
18888;DHT22;9576;47.792;9.628;2024-02-15T04:50:30;4.10;99.90
18888;DHT22;9576;47.792;9.628;2024-02-15T04:53:32;4.10;99.90
18888;DHT22;9576;47.792;9.628;2024-02-15T04:56:33;4.10;99.90
18888;DHT22;9576;47.792;9.628;2024-02-15T04:59:37;4.10;99.90
18888;DHT22;9576;47.792;9.628;2024-02-15T05:02:39;4.00;99.90
18888;DHT22;9576;47.792;9.628;2024-02-15T05:05:41;4.00;99.90
18888;DHT22;9576;47.792;9.628;2024-02-15T05:08:43;3.90;99.90
18888;DHT22;9576;47.792;9.628;2024-02-15T05:11:44;3.90;99.90
18888;DHT22;9576;47.792;9.628;2024-02-15T05:14:49;3.90;99.90
18888;DHT22;9576;47.792;9.628;2024-02-15T05:17:52;3.90;99.90
18888;DHT22;9576;47.792;9.628;2024-02-15T05:20:54;3.80;99.90
18888;DHT22;9576;47.792;9.628;2024-02-15T05:23:55;3.80;99.90
18888;DHT22;9576;47.792;9.628;2024-02-15T05:26:57;3.70;99.90
18888;DHT22;9576;47.792;9.628;2024-02-15T05:30:01;3.70;99.90
18888;DHT22;9576;47.792;9.628;2024-02-15T05:33:05;3.80;99.90
18888;DHT22;9576;47.792;9.628;2024-02-15T05:36:08;3.70;99.90
18888;DHT22;9576;47.792;9.628;2024-02-15T05:39:10;3.70;99.90
18888;DHT22;9576;47.792;9.628;2024-02-15T05:42:14;3.70;99.90
18888;DHT22;9576;47.792;9.628;2024-02-15T05:45:30;3.70;99.90
18888;DHT22;9576;47.792;9.628;2024-02-15T05:48:38;3.60;99.90
18888;DHT22;9576;47.792;9.628;2024-02-15T05:51:39;3.60;99.90
18888;DHT22;9576;47.792;9.628;2024-02-15T05:54:41;3.50;99.90
18888;DHT22;9576;47.792;9.628;2024-02-15T05:57:43;3.50;99.90
18888;DHT22;9576;47.792;9.628;2024-02-15T06:00:46;3.50;99.90
18888;DHT22;9576;47.792;9.628;2024-02-15T06:03:50;3.40;99.90
18888;DHT22;9576;47.792;9.628;2024-02-15T06:06:55;3.40;99.90
18888;DHT22;9576;47.792;9.628;2024-02-15T06:10:01;3.40;99.90
18888;DHT22;9576;47.792;9.628;2024-02-15T06:13:03;3.40;99.90
18888;DHT22;9576;47.792;9.628;2024-02-15T06:16:07;3.30;99.90
18888;DHT22;9576;47.792;9.628;2024-02-15T06:19:10;3.30;99.90
18888;DHT22;9576;47.792;9.628;2024-02-15T06:22:11;3.30;99.90
18888;DHT22;9576;47.792;9.628;2024-02-15T06:25:14;3.30;99.90
18888;DHT22;9576;47.792;9.628;2024-02-15T06:28:20;3.30;99.90
18888;DHT22;9576;47.792;9.628;2024-02-15T06:31:38;3.30;99.90
18888;DHT22;9576;47.792;9.628;2024-02-15T06:34:57;3.30;99.90
18888;DHT22;9576;47.792;9.628;2024-02-15T06:38:16;3.20;99.90
18888;DHT22;9576;47.792;9.628;2024-02-15T06:41:35;3.20;99.90
18888;DHT22;9576;47.792;9.628;2024-02-15T06:44:37;3.20;99.90
18888;DHT22;9576;47.792;9.628;2024-02-15T06:47:42;3.20;99.90
18888;DHT22;9576;47.792;9.628;2024-02-15T06:50:48;3.20;99.90
18888;DHT22;9576;47.792;9.628;2024-02-15T06:53:52;3.20;99.90
18888;DHT22;9576;47.792;9.628;2024-02-15T06:56:56;3.20;99.90
18888;DHT22;9576;47.792;9.628;2024-02-15T06:59:58;3.20;99.90
18888;DHT22;9576;47.792;9.628;2024-02-15T07:03:01;3.20;99.90
18888;DHT22;9576;47.792;9.628;2024-02-15T07:06:03;3.20;99.90
18888;DHT22;9576;47.792;9.628;2024-02-15T07:09:05;3.20;99.90
18888;DHT22;9576;47.792;9.628;2024-02-15T07:12:07;3.20;99.90
18888;DHT22;9576;47.792;9.628;2024-02-15T07:15:09;3.20;99.90
18888;DHT22;9576;47.792;9.628;2024-02-15T07:18:15;3.20;99.90
18888;DHT22;9576;47.792;9.628;2024-02-15T07:21:19;3.10;99.90
18888;DHT22;9576;47.792;9.628;2024-02-15T07:24:26;3.20;99.90
18888;DHT22;9576;47.792;9.628;2024-02-15T07:27:27;3.30;99.90
18888;DHT22;9576;47.792;9.628;2024-02-15T07:30:29;3.30;99.90
18888;DHT22;9576;47.792;9.628;2024-02-15T07:33:33;3.40;99.90
18888;DHT22;9576;47.792;9.628;2024-02-15T07:36:35;3.40;99.90
18888;DHT22;9576;47.792;9.628;2024-02-15T07:39:39;3.50;99.90
18888;DHT22;9576;47.792;9.628;2024-02-15T07:42:41;3.60;99.90
18888;DHT22;9576;47.792;9.628;2024-02-15T07:45:42;3.70;99.90
18888;DHT22;9576;47.792;9.628;2024-02-15T07:48:46;3.70;99.90
18888;DHT22;9576;47.792;9.628;2024-02-15T07:51:48;3.80;99.90
18888;DHT22;9576;47.792;9.628;2024-02-15T07:54:53;3.90;99.90
18888;DHT22;9576;47.792;9.628;2024-02-15T07:57:55;4.00;99.90
18888;DHT22;9576;47.792;9.628;2024-02-15T08:00:59;4.00;99.90
18888;DHT22;9576;47.792;9.628;2024-02-15T08:04:02;3.90;99.90
18888;DHT22;9576;47.792;9.628;2024-02-15T08:07:04;3.90;99.90
18888;DHT22;9576;47.792;9.628;2024-02-15T08:10:11;4.10;99.90
18888;DHT22;9576;47.792;9.628;2024-02-15T08:13:14;4.30;99.90
18888;DHT22;9576;47.792;9.628;2024-02-15T08:16:18;4.60;99.90
18888;DHT22;9576;47.792;9.628;2024-02-15T08:19:23;4.80;99.90
18888;DHT22;9576;47.792;9.628;2024-02-15T08:22:25;4.90;99.90
18888;DHT22;9576;47.792;9.628;2024-02-15T08:25:26;5.10;99.90
18888;DHT22;9576;47.792;9.628;2024-02-15T08:28:29;5.10;99.90
18888;DHT22;9576;47.792;9.628;2024-02-15T08:31:30;5.10;99.90
18888;DHT22;9576;47.792;9.628;2024-02-15T08:34:33;5.30;99.90
18888;DHT22;9576;47.792;9.628;2024-02-15T08:37:35;5.50;99.90
18888;DHT22;9576;47.792;9.628;2024-02-15T08:40:38;5.60;99.90
18888;DHT22;9576;47.792;9.628;2024-02-15T08:43:40;5.50;99.90
18888;DHT22;9576;47.792;9.628;2024-02-15T08:46:42;5.50;99.90
18888;DHT22;9576;47.792;9.628;2024-02-15T08:49:45;5.50;99.90
18888;DHT22;9576;47.792;9.628;2024-02-15T08:52:46;5.60;99.90
18888;DHT22;9576;47.792;9.628;2024-02-15T08:55:48;5.60;99.90
18888;DHT22;9576;47.792;9.628;2024-02-15T08:58:50;5.80;99.90
18888;DHT22;9576;47.792;9.628;2024-02-15T09:01:52;5.90;99.90
18888;DHT22;9576;47.792;9.628;2024-02-15T09:04:56;6.10;99.90
18888;DHT22;9576;47.792;9.628;2024-02-15T09:07:59;6.20;99.90
18888;DHT22;9576;47.792;9.628;2024-02-15T09:11:01;6.20;99.90
18888;DHT22;9576;47.792;9.628;2024-02-15T09:14:02;6.30;99.90
18888;DHT22;9576;47.792;9.628;2024-02-15T09:17:04;6.50;99.90
18888;DHT22;9576;47.792;9.628;2024-02-15T09:20:10;6.50;99.90
18888;DHT22;9576;47.792;9.628;2024-02-15T09:23:14;6.70;99.90
18888;DHT22;9576;47.792;9.628;2024-02-15T09:26:17;6.90;99.90
18888;DHT22;9576;47.792;9.628;2024-02-15T09:29:18;7.10;99.90
18888;DHT22;9576;47.792;9.628;2024-02-15T09:32:21;7.20;99.90
18888;DHT22;9576;47.792;9.628;2024-02-15T09:35:25;7.30;99.90
18888;DHT22;9576;47.792;9.628;2024-02-15T09:38:27;7.30;99.90
18888;DHT22;9576;47.792;9.628;2024-02-15T09:41:29;7.40;99.90
18888;DHT22;9576;47.792;9.628;2024-02-15T09:44:31;7.50;99.90
18888;DHT22;9576;47.792;9.628;2024-02-15T09:47:34;7.60;99.90
18888;DHT22;9576;47.792;9.628;2024-02-15T09:50:37;7.70;99.90
18888;DHT22;9576;47.792;9.628;2024-02-15T09:53:40;7.80;99.90
18888;DHT22;9576;47.792;9.628;2024-02-15T09:56:42;8.00;99.90
18888;DHT22;9576;47.792;9.628;2024-02-15T09:59:44;8.10;99.90
18888;DHT22;9576;47.792;9.628;2024-02-15T10:02:47;8.20;99.90
18888;DHT22;9576;47.792;9.628;2024-02-15T10:05:50;8.30;99.90
18888;DHT22;9576;47.792;9.628;2024-02-15T10:08:52;8.30;99.90
18888;DHT22;9576;47.792;9.628;2024-02-15T10:11:54;8.50;99.90
18888;DHT22;9576;47.792;9.628;2024-02-15T10:14:56;8.70;99.90
18888;DHT22;9576;47.792;9.628;2024-02-15T10:17:58;8.70;99.90
18888;DHT22;9576;47.792;9.628;2024-02-15T10:21:01;8.90;99.90
18888;DHT22;9576;47.792;9.628;2024-02-15T10:24:06;9.10;99.90
18888;DHT22;9576;47.792;9.628;2024-02-15T10:27:09;9.20;99.90
18888;DHT22;9576;47.792;9.628;2024-02-15T10:30:15;9.40;99.90
18888;DHT22;9576;47.792;9.628;2024-02-15T10:33:17;9.60;99.90
18888;DHT22;9576;47.792;9.628;2024-02-15T10:36:21;9.80;99.90
18888;DHT22;9576;47.792;9.628;2024-02-15T10:39:26;10.00;99.90
18888;DHT22;9576;47.792;9.628;2024-02-15T10:42:29;10.10;99.90
18888;DHT22;9576;47.792;9.628;2024-02-15T10:45:31;10.30;99.90
18888;DHT22;9576;47.792;9.628;2024-02-15T10:48:33;10.50;99.90
18888;DHT22;9576;47.792;9.628;2024-02-15T10:51:36;10.80;99.90
18888;DHT22;9576;47.792;9.628;2024-02-15T10:54:47;11.00;99.90
18888;DHT22;9576;47.792;9.628;2024-02-15T10:57:52;11.20;99.90
18888;DHT22;9576;47.792;9.628;2024-02-15T11:00:56;11.40;99.90
18888;DHT22;9576;47.792;9.628;2024-02-15T11:04:00;11.60;99.90
18888;DHT22;9576;47.792;9.628;2024-02-15T11:07:07;11.90;99.90
18888;DHT22;9576;47.792;9.628;2024-02-15T11:10:11;12.10;99.90
18888;DHT22;9576;47.792;9.628;2024-02-15T11:13:17;12.30;99.90
18888;DHT22;9576;47.792;9.628;2024-02-15T11:19:45;12.70;99.90
18888;DHT22;9576;47.792;9.628;2024-02-15T11:22:51;12.90;99.90
18888;DHT22;9576;47.792;9.628;2024-02-15T11:25:57;13.00;99.90
18888;DHT22;9576;47.792;9.628;2024-02-15T11:29:01;13.20;99.90
18888;DHT22;9576;47.792;9.628;2024-02-15T11:32:03;13.40;99.90
18888;DHT22;9576;47.792;9.628;2024-02-15T11:35:06;13.70;99.90
18888;DHT22;9576;47.792;9.628;2024-02-15T11:38:21;13.90;99.90
18888;DHT22;9576;47.792;9.628;2024-02-15T11:41:28;13.90;99.90
18888;DHT22;9576;47.792;9.628;2024-02-15T11:44:30;13.90;99.90
18888;DHT22;9576;47.792;9.628;2024-02-15T11:47:33;13.90;99.90
18888;DHT22;9576;47.792;9.628;2024-02-15T11:50:38;14.00;99.90
18888;DHT22;9576;47.792;9.628;2024-02-15T11:53:41;14.10;99.90
18888;DHT22;9576;47.792;9.628;2024-02-15T11:56:50;14.30;99.90
18888;DHT22;9576;47.792;9.628;2024-02-15T11:59:54;14.30;99.90
18888;DHT22;9576;47.792;9.628;2024-02-15T12:03:10;14.40;99.90
18888;DHT22;9576;47.792;9.628;2024-02-15T12:06:29;14.50;99.90
18888;DHT22;9576;47.792;9.628;2024-02-15T12:09:50;14.50;99.90
18888;DHT22;9576;47.792;9.628;2024-02-15T12:13:17;14.60;99.90
18888;DHT22;9576;47.792;9.628;2024-02-15T12:16:36;14.80;99.90
18888;DHT22;9576;47.792;9.628;2024-02-15T12:19:56;14.90;99.90
18888;DHT22;9576;47.792;9.628;2024-02-15T12:22:58;15.30;99.90
18888;DHT22;9576;47.792;9.628;2024-02-15T12:26:02;15.60;99.90
18888;DHT22;9576;47.792;9.628;2024-02-15T12:29:04;15.90;99.90
18888;DHT22;9576;47.792;9.628;2024-02-15T12:32:08;16.20;99.90
18888;DHT22;9576;47.792;9.628;2024-02-15T12:35:10;16.40;99.90
18888;DHT22;9576;47.792;9.628;2024-02-15T12:38:13;16.40;99.90
18888;DHT22;9576;47.792;9.628;2024-02-15T12:41:19;16.40;99.90
18888;DHT22;9576;47.792;9.628;2024-02-15T12:44:21;16.40;99.90
18888;DHT22;9576;47.792;9.628;2024-02-15T12:47:22;16.60;99.90
18888;DHT22;9576;47.792;9.628;2024-02-15T12:50:27;16.60;99.90
18888;DHT22;9576;47.792;9.628;2024-02-15T12:53:29;16.80;99.90
18888;DHT22;9576;47.792;9.628;2024-02-15T12:56:32;16.90;99.90
18888;DHT22;9576;47.792;9.628;2024-02-15T12:59:34;17.10;99.90
18888;DHT22;9576;47.792;9.628;2024-02-15T13:02:36;17.30;99.90
18888;DHT22;9576;47.792;9.628;2024-02-15T13:05:38;17.60;99.90
18888;DHT22;9576;47.792;9.628;2024-02-15T13:08:40;17.90;99.90
18888;DHT22;9576;47.792;9.628;2024-02-15T13:11:43;18.00;99.90
18888;DHT22;9576;47.792;9.628;2024-02-15T13:14:47;18.20;99.90
18888;DHT22;9576;47.792;9.628;2024-02-15T13:17:50;18.10;99.90
18888;DHT22;9576;47.792;9.628;2024-02-15T13:20:52;17.90;99.90
18888;DHT22;9576;47.792;9.628;2024-02-15T13:23:54;17.80;99.90
18888;DHT22;9576;47.792;9.628;2024-02-15T13:26:57;17.90;99.90
18888;DHT22;9576;47.792;9.628;2024-02-15T13:29:59;17.90;99.90
18888;DHT22;9576;47.792;9.628;2024-02-15T13:33:01;18.10;99.90
18888;DHT22;9576;47.792;9.628;2024-02-15T13:36:03;18.50;99.90
18888;DHT22;9576;47.792;9.628;2024-02-15T13:39:07;18.70;99.90
18888;DHT22;9576;47.792;9.628;2024-02-15T13:42:11;19.00;99.90
18888;DHT22;9576;47.792;9.628;2024-02-15T13:45:13;19.00;99.90
18888;DHT22;9576;47.792;9.628;2024-02-15T13:48:15;19.40;99.90
18888;DHT22;9576;47.792;9.628;2024-02-15T13:51:17;19.80;99.90
18888;DHT22;9576;47.792;9.628;2024-02-15T13:54:19;20.10;99.90
18888;DHT22;9576;47.792;9.628;2024-02-15T13:57:24;20.30;99.90
18888;DHT22;9576;47.792;9.628;2024-02-15T14:00:26;20.30;99.90
18888;DHT22;9576;47.792;9.628;2024-02-15T14:03:32;20.40;99.90
18888;DHT22;9576;47.792;9.628;2024-02-15T14:06:34;20.30;99.90
18888;DHT22;9576;47.792;9.628;2024-02-15T14:09:37;20.20;99.90
18888;DHT22;9576;47.792;9.628;2024-02-15T14:12:40;20.00;99.90
18888;DHT22;9576;47.792;9.628;2024-02-15T14:15:42;20.10;99.90
18888;DHT22;9576;47.792;9.628;2024-02-15T14:18:43;20.30;99.90
18888;DHT22;9576;47.792;9.628;2024-02-15T14:21:45;20.50;99.90
18888;DHT22;9576;47.792;9.628;2024-02-15T14:24:47;20.70;99.90
18888;DHT22;9576;47.792;9.628;2024-02-15T14:27:50;20.80;99.90
18888;DHT22;9576;47.792;9.628;2024-02-15T14:30:53;20.50;99.90
18888;DHT22;9576;47.792;9.628;2024-02-15T14:34:12;20.40;99.90
18888;DHT22;9576;47.792;9.628;2024-02-15T14:37:13;20.00;99.90
18888;DHT22;9576;47.792;9.628;2024-02-15T14:40:17;19.60;99.90
18888;DHT22;9576;47.792;9.628;2024-02-15T14:43:20;19.40;99.90
18888;DHT22;9576;47.792;9.628;2024-02-15T14:46:22;19.40;99.90
18888;DHT22;9576;47.792;9.628;2024-02-15T14:49:24;19.40;99.90
18888;DHT22;9576;47.792;9.628;2024-02-15T14:52:26;19.30;99.90
18888;DHT22;9576;47.792;9.628;2024-02-15T14:55:28;19.40;99.90
18888;DHT22;9576;47.792;9.628;2024-02-15T14:58:32;19.10;99.90
18888;DHT22;9576;47.792;9.628;2024-02-15T15:01:35;18.90;99.90
18888;DHT22;9576;47.792;9.628;2024-02-15T15:04:37;18.70;99.90
18888;DHT22;9576;47.792;9.628;2024-02-15T15:08:08;18.40;99.90
18888;DHT22;9576;47.792;9.628;2024-02-15T15:11:27;18.00;99.90
18888;DHT22;9576;47.792;9.628;2024-02-15T15:14:48;17.70;99.90
18888;DHT22;9576;47.792;9.628;2024-02-15T15:17:50;17.40;99.90
18888;DHT22;9576;47.792;9.628;2024-02-15T15:20:51;17.10;99.90
18888;DHT22;9576;47.792;9.628;2024-02-15T15:23:53;16.60;99.90
18888;DHT22;9576;47.792;9.628;2024-02-15T15:26:56;16.50;99.90
18888;DHT22;9576;47.792;9.628;2024-02-15T15:29:59;16.30;99.90
18888;DHT22;9576;47.792;9.628;2024-02-15T15:33:01;16.10;99.90
18888;DHT22;9576;47.792;9.628;2024-02-15T15:36:03;16.00;99.90
18888;DHT22;9576;47.792;9.628;2024-02-15T15:39:05;15.90;99.90
18888;DHT22;9576;47.792;9.628;2024-02-15T15:42:09;15.90;99.90
18888;DHT22;9576;47.792;9.628;2024-02-15T15:45:13;15.70;99.90
18888;DHT22;9576;47.792;9.628;2024-02-15T15:48:15;15.60;99.90
18888;DHT22;9576;47.792;9.628;2024-02-15T15:51:17;15.50;99.90
18888;DHT22;9576;47.792;9.628;2024-02-15T15:54:18;15.40;99.90
18888;DHT22;9576;47.792;9.628;2024-02-15T15:57:21;15.30;99.90
18888;DHT22;9576;47.792;9.628;2024-02-15T16:00:26;15.20;99.90
18888;DHT22;9576;47.792;9.628;2024-02-15T16:03:28;15.10;99.90
18888;DHT22;9576;47.792;9.628;2024-02-15T16:06:31;15.00;99.90
18888;DHT22;9576;47.792;9.628;2024-02-15T16:09:34;14.90;99.90
18888;DHT22;9576;47.792;9.628;2024-02-15T16:12:35;14.80;99.90
18888;DHT22;9576;47.792;9.628;2024-02-15T16:15:39;14.70;99.90
18888;DHT22;9576;47.792;9.628;2024-02-15T16:18:44;14.60;99.90
18888;DHT22;9576;47.792;9.628;2024-02-15T16:21:45;14.50;99.90
18888;DHT22;9576;47.792;9.628;2024-02-15T16:24:47;14.30;99.90
18888;DHT22;9576;47.792;9.628;2024-02-15T16:27:49;14.20;99.90
18888;DHT22;9576;47.792;9.628;2024-02-15T16:30:53;14.10;99.90
18888;DHT22;9576;47.792;9.628;2024-02-15T16:33:55;13.90;99.90
18888;DHT22;9576;47.792;9.628;2024-02-15T16:36:56;13.70;99.90
18888;DHT22;9576;47.792;9.628;2024-02-15T16:39:58;13.60;99.90
18888;DHT22;9576;47.792;9.628;2024-02-15T16:43:00;13.40;99.90
18888;DHT22;9576;47.792;9.628;2024-02-15T16:46:06;13.30;99.90
18888;DHT22;9576;47.792;9.628;2024-02-15T16:49:08;13.10;99.90
18888;DHT22;9576;47.792;9.628;2024-02-15T16:52:10;12.90;99.90
18888;DHT22;9576;47.792;9.628;2024-02-15T16:55:12;12.70;99.90
18888;DHT22;9576;47.792;9.628;2024-02-15T16:58:13;12.60;99.90
18888;DHT22;9576;47.792;9.628;2024-02-15T17:01:19;12.50;99.90
18888;DHT22;9576;47.792;9.628;2024-02-15T17:04:21;12.40;99.90
18888;DHT22;9576;47.792;9.628;2024-02-15T17:07:23;12.30;99.90
18888;DHT22;9576;47.792;9.628;2024-02-15T17:10:26;12.20;99.90
18888;DHT22;9576;47.792;9.628;2024-02-15T17:13:29;12.00;99.90
18888;DHT22;9576;47.792;9.628;2024-02-15T17:16:32;11.90;99.90
18888;DHT22;9576;47.792;9.628;2024-02-15T17:19:34;11.80;99.90
18888;DHT22;9576;47.792;9.628;2024-02-15T17:22:35;11.70;99.90
18888;DHT22;9576;47.792;9.628;2024-02-15T17:25:37;11.60;99.90
18888;DHT22;9576;47.792;9.628;2024-02-15T17:28:39;11.50;99.90
18888;DHT22;9576;47.792;9.628;2024-02-15T17:31:42;11.50;99.90
18888;DHT22;9576;47.792;9.628;2024-02-15T17:34:44;11.40;99.90
18888;DHT22;9576;47.792;9.628;2024-02-15T17:37:45;11.30;99.90
18888;DHT22;9576;47.792;9.628;2024-02-15T17:40:47;11.30;99.90
18888;DHT22;9576;47.792;9.628;2024-02-15T17:43:50;11.20;99.90
18888;DHT22;9576;47.792;9.628;2024-02-15T17:46:57;11.20;99.90
18888;DHT22;9576;47.792;9.628;2024-02-15T17:50:00;11.10;99.90
18888;DHT22;9576;47.792;9.628;2024-02-15T17:53:02;11.00;99.90
18888;DHT22;9576;47.792;9.628;2024-02-15T17:56:04;10.90;99.90
18888;DHT22;9576;47.792;9.628;2024-02-15T17:59:06;10.90;99.90
18888;DHT22;9576;47.792;9.628;2024-02-15T18:02:11;10.90;99.90
18888;DHT22;9576;47.792;9.628;2024-02-15T18:05:13;10.80;99.90
18888;DHT22;9576;47.792;9.628;2024-02-15T18:08:15;10.80;99.90
18888;DHT22;9576;47.792;9.628;2024-02-15T18:11:19;10.70;99.90
18888;DHT22;9576;47.792;9.628;2024-02-15T18:14:21;10.70;99.90
18888;DHT22;9576;47.792;9.628;2024-02-15T18:17:25;10.70;99.90
18888;DHT22;9576;47.792;9.628;2024-02-15T18:20:26;10.70;99.90
18888;DHT22;9576;47.792;9.628;2024-02-15T18:23:28;10.60;99.90
18888;DHT22;9576;47.792;9.628;2024-02-15T18:26:30;10.50;99.90
18888;DHT22;9576;47.792;9.628;2024-02-15T18:29:32;10.50;99.90
18888;DHT22;9576;47.792;9.628;2024-02-15T18:32:35;10.50;99.90
18888;DHT22;9576;47.792;9.628;2024-02-15T18:35:37;10.40;99.90
18888;DHT22;9576;47.792;9.628;2024-02-15T18:38:41;10.40;99.90
18888;DHT22;9576;47.792;9.628;2024-02-15T18:41:47;10.40;99.90
18888;DHT22;9576;47.792;9.628;2024-02-15T18:44:50;10.40;99.90
18888;DHT22;9576;47.792;9.628;2024-02-15T18:47:53;10.40;99.90
18888;DHT22;9576;47.792;9.628;2024-02-15T18:50:54;10.40;99.90
18888;DHT22;9576;47.792;9.628;2024-02-15T18:53:57;10.30;99.90
18888;DHT22;9576;47.792;9.628;2024-02-15T18:56:58;10.30;99.90
18888;DHT22;9576;47.792;9.628;2024-02-15T19:00:01;10.20;99.90
18888;DHT22;9576;47.792;9.628;2024-02-15T19:03:04;10.20;99.90
18888;DHT22;9576;47.792;9.628;2024-02-15T19:06:06;10.10;99.90
18888;DHT22;9576;47.792;9.628;2024-02-15T19:09:09;10.00;99.90
18888;DHT22;9576;47.792;9.628;2024-02-15T19:12:11;10.00;99.90
18888;DHT22;9576;47.792;9.628;2024-02-15T19:15:13;9.90;99.90
18888;DHT22;9576;47.792;9.628;2024-02-15T19:18:16;9.80;99.90
18888;DHT22;9576;47.792;9.628;2024-02-15T19:21:17;9.80;99.90
18888;DHT22;9576;47.792;9.628;2024-02-15T19:24:19;9.70;99.90
18888;DHT22;9576;47.792;9.628;2024-02-15T19:27:21;9.60;99.90
18888;DHT22;9576;47.792;9.628;2024-02-15T19:30:23;9.50;99.90
18888;DHT22;9576;47.792;9.628;2024-02-15T19:33:27;9.40;99.90
18888;DHT22;9576;47.792;9.628;2024-02-15T19:36:30;9.40;99.90
18888;DHT22;9576;47.792;9.628;2024-02-15T19:39:31;9.30;99.90
18888;DHT22;9576;47.792;9.628;2024-02-15T19:42:33;9.20;99.90
18888;DHT22;9576;47.792;9.628;2024-02-15T19:45:35;9.20;99.90
18888;DHT22;9576;47.792;9.628;2024-02-15T19:48:43;9.20;99.90
18888;DHT22;9576;47.792;9.628;2024-02-15T19:51:48;9.20;99.90